Mims, Florida
Current Conditions -  °F | °C
As of 1:53 PM on Monday 20 Oct 2014 (Local Time) from KTTS Reporting Station
Broken Clouds Broken Clouds  
Wind Chill: 82°   Ceiling: 2800
Heat Index: 86°   Visibility: 10mi
Dew Point: 70°   Wind: 6mph
Humidity: 66%   Direction: 80°E
Pressure: 30"   Gusts: NA
Location:  28.66°N, 80.85°W
Report Text: KTTS 201753Z AUTO 08005KT 10SM BKN028 BKN032 28/21 A3000 RMK AO2 CIG 026V032 VISNO RWY33 CHINO RWY33 $
Loading
Personal Weather Stations






























Interactive Weather Map
Tropical Storm Tracking
New forecast layout! Learn more

10-Day Weather Forecast

Advertisements
Track Severe Weather on mobile